sensor_id;sensor_type;location;lat;lon;timestamp;P1;durP1;ratioP1;P2;durP2;ratioP2
47669;SDS011;33408;52.062;11.722;2022-11-15T00:02:16;27.63;;;22.25;;
47669;SDS011;33408;52.062;11.722;2022-11-15T00:04:43;33.50;;;24.40;;
47669;SDS011;33408;52.062;11.722;2022-11-15T00:07:09;31.25;;;22.48;;
47669;SDS011;33408;52.062;11.722;2022-11-15T00:09:36;33.83;;;23.92;;
47669;SDS011;33408;52.062;11.722;2022-11-15T00:12:04;35.28;;;25.92;;
47669;SDS011;33408;52.062;11.722;2022-11-15T00:14:31;34.03;;;25.08;;
47669;SDS011;33408;52.062;11.722;2022-11-15T00:16:57;32.75;;;23.05;;
47669;SDS011;33408;52.062;11.722;2022-11-15T00:19:24;26.35;;;21.92;;
47669;SDS011;33408;52.062;11.722;2022-11-15T00:21:50;28.20;;;21.35;;
47669;SDS011;33408;52.062;11.722;2022-11-15T00:24:17;27.85;;;20.88;;
47669;SDS011;33408;52.062;11.722;2022-11-15T00:26:44;29.45;;;22.00;;
47669;SDS011;33408;52.062;11.722;2022-11-15T00:29:11;28.23;;;21.25;;
47669;SDS011;33408;52.062;11.722;2022-11-15T00:31:38;27.67;;;21.30;;
47669;SDS011;33408;52.062;11.722;2022-11-15T00:34:05;27.63;;;21.17;;
47669;SDS011;33408;52.062;11.722;2022-11-15T00:36:32;27.27;;;21.02;;
47669;SDS011;33408;52.062;11.722;2022-11-15T00:38:59;29.23;;;21.25;;
47669;SDS011;33408;52.062;11.722;2022-11-15T00:41:25;28.85;;;20.52;;
47669;SDS011;33408;52.062;11.722;2022-11-15T00:43:52;25.77;;;20.45;;
47669;SDS011;33408;52.062;11.722;2022-11-15T00:46:20;29.45;;;21.40;;
47669;SDS011;33408;52.062;11.722;2022-11-15T00:48:46;27.40;;;20.90;;
47669;SDS011;33408;52.062;11.722;2022-11-15T00:51:13;27.08;;;19.90;;
47669;SDS011;33408;52.062;11.722;2022-11-15T00:53:40;28.40;;;21.02;;
47669;SDS011;33408;52.062;11.722;2022-11-15T00:56:06;28.65;;;21.13;;
47669;SDS011;33408;52.062;11.722;2022-11-15T00:58:33;26.02;;;20.60;;
47669;SDS011;33408;52.062;11.722;2022-11-15T01:01:06;28.77;;;21.70;;
47669;SDS011;33408;52.062;11.722;2022-11-15T01:03:36;27.42;;;21.25;;
47669;SDS011;33408;52.062;11.722;2022-11-15T01:06:04;28.67;;;20.75;;
47669;SDS011;33408;52.062;11.722;2022-11-15T01:08:31;26.83;;;20.98;;
47669;SDS011;33408;52.062;11.722;2022-11-15T01:11:02;27.90;;;20.83;;
47669;SDS011;33408;52.062;11.722;2022-11-15T01:13:30;27.15;;;21.15;;
47669;SDS011;33408;52.062;11.722;2022-11-15T01:15:57;31.42;;;22.08;;
47669;SDS011;33408;52.062;11.722;2022-11-15T01:18:24;28.70;;;20.90;;
47669;SDS011;33408;52.062;11.722;2022-11-15T01:20:52;27.20;;;21.23;;
47669;SDS011;33408;52.062;11.722;2022-11-15T01:23:18;29.08;;;22.35;;
47669;SDS011;33408;52.062;11.722;2022-11-15T01:25:45;26.83;;;21.08;;
47669;SDS011;33408;52.062;11.722;2022-11-15T01:28:12;29.05;;;21.40;;
47669;SDS011;33408;52.062;11.722;2022-11-15T01:30:38;28.27;;;21.38;;
47669;SDS011;33408;52.062;11.722;2022-11-15T01:33:05;30.38;;;22.00;;
47669;SDS011;33408;52.062;11.722;2022-11-15T01:35:31;28.88;;;20.88;;
47669;SDS011;33408;52.062;11.722;2022-11-15T01:37:59;27.45;;;21.65;;
47669;SDS011;33408;52.062;11.722;2022-11-15T01:40:26;29.83;;;22.27;;
47669;SDS011;33408;52.062;11.722;2022-11-15T01:42:52;28.17;;;21.67;;
47669;SDS011;33408;52.062;11.722;2022-11-15T01:45:19;29.75;;;22.13;;
47669;SDS011;33408;52.062;11.722;2022-11-15T01:47:46;31.02;;;21.88;;
47669;SDS011;33408;52.062;11.722;2022-11-15T01:50:18;26.20;;;20.27;;
47669;SDS011;33408;52.062;11.722;2022-11-15T01:52:48;29.65;;;21.88;;
47669;SDS011;33408;52.062;11.722;2022-11-15T01:55:17;27.48;;;20.48;;
47669;SDS011;33408;52.062;11.722;2022-11-15T01:57:47;28.35;;;21.45;;
47669;SDS011;33408;52.062;11.722;2022-11-15T02:00:17;27.70;;;21.58;;
47669;SDS011;33408;52.062;11.722;2022-11-15T02:02:44;27.23;;;20.73;;
47669;SDS011;33408;52.062;11.722;2022-11-15T02:05:10;27.38;;;19.75;;
47669;SDS011;33408;52.062;11.722;2022-11-15T02:07:37;30.00;;;22.02;;
47669;SDS011;33408;52.062;11.722;2022-11-15T02:10:06;29.67;;;21.65;;
47669;SDS011;33408;52.062;11.722;2022-11-15T02:12:36;28.42;;;21.30;;
47669;SDS011;33408;52.062;11.722;2022-11-15T02:15:04;26.92;;;21.25;;
47669;SDS011;33408;52.062;11.722;2022-11-15T02:17:37;29.13;;;22.55;;
47669;SDS011;33408;52.062;11.722;2022-11-15T02:20:26;31.08;;;22.00;;
47669;SDS011;33408;52.062;11.722;2022-11-15T02:23:20;27.77;;;21.25;;
47669;SDS011;33408;52.062;11.722;2022-11-15T02:26:10;28.65;;;21.33;;
47669;SDS011;33408;52.062;11.722;2022-11-15T02:28:55;29.10;;;20.40;;
47669;SDS011;33408;52.062;11.722;2022-11-15T02:31:29;30.67;;;21.00;;
47669;SDS011;33408;52.062;11.722;2022-11-15T02:34:06;29.63;;;21.42;;
47669;SDS011;33408;52.062;11.722;2022-11-15T02:36:40;30.73;;;21.63;;
47669;SDS011;33408;52.062;11.722;2022-11-15T02:39:12;30.48;;;22.52;;
47669;SDS011;33408;52.062;11.722;2022-11-15T02:41:48;30.38;;;22.75;;
47669;SDS011;33408;52.062;11.722;2022-11-15T02:44:21;27.60;;;20.92;;
47669;SDS011;33408;52.062;11.722;2022-11-15T02:46:52;29.30;;;22.17;;
47669;SDS011;33408;52.062;11.722;2022-11-15T02:49:42;30.60;;;21.50;;
47669;SDS011;33408;52.062;11.722;2022-11-15T02:52:14;31.27;;;21.70;;
47669;SDS011;33408;52.062;11.722;2022-11-15T02:54:42;27.70;;;21.50;;
47669;SDS011;33408;52.062;11.722;2022-11-15T02:57:10;30.25;;;21.13;;
47669;SDS011;33408;52.062;11.722;2022-11-15T02:59:43;25.63;;;20.63;;
47669;SDS011;33408;52.062;11.722;2022-11-15T03:02:31;29.85;;;20.90;;
47669;SDS011;33408;52.062;11.722;2022-11-15T03:05:16;27.55;;;21.02;;
47669;SDS011;33408;52.062;11.722;2022-11-15T03:07:52;28.13;;;21.30;;
47669;SDS011;33408;52.062;11.722;2022-11-15T03:10:25;27.33;;;20.48;;
47669;SDS011;33408;52.062;11.722;2022-11-15T03:12:59;33.33;;;21.92;;
47669;SDS011;33408;52.062;11.722;2022-11-15T03:15:36;29.23;;;21.90;;
47669;SDS011;33408;52.062;11.722;2022-11-15T03:18:10;27.25;;;20.08;;
47669;SDS011;33408;52.062;11.722;2022-11-15T03:20:42;27.30;;;21.08;;
47669;SDS011;33408;52.062;11.722;2022-11-15T03:23:11;30.70;;;21.30;;
47669;SDS011;33408;52.062;11.722;2022-11-15T03:25:40;26.90;;;20.73;;
47669;SDS011;33408;52.062;11.722;2022-11-15T03:28:11;26.08;;;20.45;;
47669;SDS011;33408;52.062;11.722;2022-11-15T03:30:43;26.73;;;20.55;;
47669;SDS011;33408;52.062;11.722;2022-11-15T03:33:15;27.67;;;21.67;;
47669;SDS011;33408;52.062;11.722;2022-11-15T03:35:43;30.63;;;21.30;;
47669;SDS011;33408;52.062;11.722;2022-11-15T03:38:14;27.63;;;19.98;;
47669;SDS011;33408;52.062;11.722;2022-11-15T03:40:47;27.25;;;20.27;;
47669;SDS011;33408;52.062;11.722;2022-11-15T03:43:22;29.38;;;20.38;;
47669;SDS011;33408;52.062;11.722;2022-11-15T03:45:55;29.63;;;21.88;;
47669;SDS011;33408;52.062;11.722;2022-11-15T03:48:28;32.03;;;20.98;;
47669;SDS011;33408;52.062;11.722;2022-11-15T03:50:59;26.63;;;20.33;;
47669;SDS011;33408;52.062;11.722;2022-11-15T03:53:27;27.35;;;20.38;;
47669;SDS011;33408;52.062;11.722;2022-11-15T03:55:55;25.92;;;19.00;;
47669;SDS011;33408;52.062;11.722;2022-11-15T03:58:22;29.42;;;20.45;;
47669;SDS011;33408;52.062;11.722;2022-11-15T04:00:48;28.48;;;20.73;;
47669;SDS011;33408;52.062;11.722;2022-11-15T04:03:15;28.67;;;21.48;;
47669;SDS011;33408;52.062;11.722;2022-11-15T04:05:43;32.25;;;22.48;;
47669;SDS011;33408;52.062;11.722;2022-11-15T04:08:09;28.27;;;21.60;;
47669;SDS011;33408;52.062;11.722;2022-11-15T04:10:36;29.02;;;21.30;;
47669;SDS011;33408;52.062;11.722;2022-11-15T04:13:03;30.98;;;20.88;;
47669;SDS011;33408;52.062;11.722;2022-11-15T04:15:29;28.58;;;20.10;;
47669;SDS011;33408;52.062;11.722;2022-11-15T04:17:56;25.25;;;19.08;;
47669;SDS011;33408;52.062;11.722;2022-11-15T04:20:24;27.83;;;20.83;;
47669;SDS011;33408;52.062;11.722;2022-11-15T04:23:11;26.85;;;19.67;;
47669;SDS011;33408;52.062;11.722;2022-11-15T04:25:58;28.00;;;19.48;;
47669;SDS011;33408;52.062;11.722;2022-11-15T04:28:27;30.42;;;21.65;;
47669;SDS011;33408;52.062;11.722;2022-11-15T04:30:54;24.38;;;18.77;;
47669;SDS011;33408;52.062;11.722;2022-11-15T04:33:20;24.80;;;18.75;;
47669;SDS011;33408;52.062;11.722;2022-11-15T04:35:47;26.92;;;19.40;;
47669;SDS011;33408;52.062;11.722;2022-11-15T04:38:29;25.40;;;19.55;;
47669;SDS011;33408;52.062;11.722;2022-11-15T04:40:56;27.27;;;20.17;;
47669;SDS011;33408;52.062;11.722;2022-11-15T04:43:23;27.17;;;19.98;;
47669;SDS011;33408;52.062;11.722;2022-11-15T04:45:49;26.05;;;19.52;;
47669;SDS011;33408;52.062;11.722;2022-11-15T04:48:16;25.33;;;18.58;;
47669;SDS011;33408;52.062;11.722;2022-11-15T04:50:42;26.92;;;18.77;;
47669;SDS011;33408;52.062;11.722;2022-11-15T04:53:09;24.73;;;18.48;;
47669;SDS011;33408;52.062;11.722;2022-11-15T04:55:37;25.75;;;20.35;;
47669;SDS011;33408;52.062;11.722;2022-11-15T04:58:03;26.17;;;19.02;;
47669;SDS011;33408;52.062;11.722;2022-11-15T05:00:30;29.05;;;20.42;;
47669;SDS011;33408;52.062;11.722;2022-11-15T05:02:57;22.85;;;17.88;;
47669;SDS011;33408;52.062;11.722;2022-11-15T05:05:41;26.80;;;19.13;;
47669;SDS011;33408;52.062;11.722;2022-11-15T05:08:07;26.55;;;18.83;;
47669;SDS011;33408;52.062;11.722;2022-11-15T05:10:34;29.08;;;19.50;;
47669;SDS011;33408;52.062;11.722;2022-11-15T05:13:02;27.08;;;19.52;;
47669;SDS011;33408;52.062;11.722;2022-11-15T05:15:28;29.92;;;21.10;;
47669;SDS011;33408;52.062;11.722;2022-11-15T05:17:57;28.30;;;19.95;;
47669;SDS011;33408;52.062;11.722;2022-11-15T05:20:24;26.10;;;19.40;;
47669;SDS011;33408;52.062;11.722;2022-11-15T05:22:50;27.05;;;19.48;;
47669;SDS011;33408;52.062;11.722;2022-11-15T05:25:18;31.08;;;19.33;;
47669;SDS011;33408;52.062;11.722;2022-11-15T05:27:45;27.30;;;19.95;;
47669;SDS011;33408;52.062;11.722;2022-11-15T05:30:13;30.80;;;19.60;;
47669;SDS011;33408;52.062;11.722;2022-11-15T05:32:40;28.55;;;21.50;;
47669;SDS011;33408;52.062;11.722;2022-11-15T05:35:07;27.48;;;20.00;;
47669;SDS011;33408;52.062;11.722;2022-11-15T05:37:38;26.10;;;19.77;;
47669;SDS011;33408;52.062;11.722;2022-11-15T05:40:13;30.65;;;21.52;;
47669;SDS011;33408;52.062;11.722;2022-11-15T05:42:39;34.35;;;26.13;;
47669;SDS011;33408;52.062;11.722;2022-11-15T05:45:06;33.17;;;25.67;;
47669;SDS011;33408;52.062;11.722;2022-11-15T05:47:37;30.65;;;22.40;;
47669;SDS011;33408;52.062;11.722;2022-11-15T05:50:06;29.00;;;21.00;;
47669;SDS011;33408;52.062;11.722;2022-11-15T05:52:34;26.20;;;20.17;;
47669;SDS011;33408;52.062;11.722;2022-11-15T05:55:02;29.42;;;20.92;;
47669;SDS011;33408;52.062;11.722;2022-11-15T05:57:30;29.45;;;19.10;;
47669;SDS011;33408;52.062;11.722;2022-11-15T05:59:57;29.02;;;20.83;;
47669;SDS011;33408;52.062;11.722;2022-11-15T06:02:24;28.75;;;21.10;;
47669;SDS011;33408;52.062;11.722;2022-11-15T06:04:52;28.05;;;20.35;;
47669;SDS011;33408;52.062;11.722;2022-11-15T06:07:19;28.23;;;20.10;;
47669;SDS011;33408;52.062;11.722;2022-11-15T06:09:45;30.52;;;20.98;;
47669;SDS011;33408;52.062;11.722;2022-11-15T06:12:12;28.17;;;19.80;;
47669;SDS011;33408;52.062;11.722;2022-11-15T06:14:39;28.73;;;22.05;;
47669;SDS011;33408;52.062;11.722;2022-11-15T06:17:05;26.83;;;20.15;;
47669;SDS011;33408;52.062;11.722;2022-11-15T06:19:32;31.02;;;20.60;;
47669;SDS011;33408;52.062;11.722;2022-11-15T06:22:00;28.52;;;20.27;;
47669;SDS011;33408;52.062;11.722;2022-11-15T06:24:27;27.38;;;19.88;;
47669;SDS011;33408;52.062;11.722;2022-11-15T06:26:53;29.85;;;21.02;;
47669;SDS011;33408;52.062;11.722;2022-11-15T06:29:20;27.15;;;19.25;;
47669;SDS011;33408;52.062;11.722;2022-11-15T06:31:46;31.15;;;20.33;;
47669;SDS011;33408;52.062;11.722;2022-11-15T06:34:13;30.52;;;21.23;;
47669;SDS011;33408;52.062;11.722;2022-11-15T06:36:39;27.73;;;19.88;;
47669;SDS011;33408;52.062;11.722;2022-11-15T06:39:07;27.95;;;20.52;;
47669;SDS011;33408;52.062;11.722;2022-11-15T06:41:34;30.35;;;20.30;;
47669;SDS011;33408;52.062;11.722;2022-11-15T06:44:01;27.77;;;18.90;;
47669;SDS011;33408;52.062;11.722;2022-11-15T06:46:28;26.23;;;19.65;;
47669;SDS011;33408;52.062;11.722;2022-11-15T06:48:54;31.60;;;19.77;;
47669;SDS011;33408;52.062;11.722;2022-11-15T06:51:21;27.65;;;19.60;;
47669;SDS011;33408;52.062;11.722;2022-11-15T06:53:48;26.48;;;18.63;;
47669;SDS011;33408;52.062;11.722;2022-11-15T06:56:16;27.83;;;20.00;;
47669;SDS011;33408;52.062;11.722;2022-11-15T06:58:42;28.02;;;19.15;;
47669;SDS011;33408;52.062;11.722;2022-11-15T07:01:09;28.42;;;19.23;;
47669;SDS011;33408;52.062;11.722;2022-11-15T07:03:38;26.98;;;18.10;;
47669;SDS011;33408;52.062;11.722;2022-11-15T07:06:06;28.10;;;19.27;;
47669;SDS011;33408;52.062;11.722;2022-11-15T07:08:34;27.30;;;19.08;;
47669;SDS011;33408;52.062;11.722;2022-11-15T07:11:02;26.23;;;19.13;;
47669;SDS011;33408;52.062;11.722;2022-11-15T07:13:32;26.30;;;18.65;;
47669;SDS011;33408;52.062;11.722;2022-11-15T07:16:01;27.35;;;19.42;;
47669;SDS011;33408;52.062;11.722;2022-11-15T07:18:28;25.75;;;17.95;;
47669;SDS011;33408;52.062;11.722;2022-11-15T07:20:55;27.55;;;18.80;;
47669;SDS011;33408;52.062;11.722;2022-11-15T07:23:21;24.35;;;16.98;;
47669;SDS011;33408;52.062;11.722;2022-11-15T07:25:48;24.58;;;18.30;;
47669;SDS011;33408;52.062;11.722;2022-11-15T07:28:14;23.55;;;18.48;;
47669;SDS011;33408;52.062;11.722;2022-11-15T07:30:42;26.00;;;18.63;;
47669;SDS011;33408;52.062;11.722;2022-11-15T07:33:09;26.13;;;18.75;;
47669;SDS011;33408;52.062;11.722;2022-11-15T07:35:35;23.55;;;18.08;;
47669;SDS011;33408;52.062;11.722;2022-11-15T07:38:02;24.30;;;17.17;;
47669;SDS011;33408;52.062;11.722;2022-11-15T07:40:29;27.23;;;18.40;;
47669;SDS011;33408;52.062;11.722;2022-11-15T07:43:00;23.42;;;17.50;;
47669;SDS011;33408;52.062;11.722;2022-11-15T07:45:27;23.63;;;17.42;;
47669;SDS011;33408;52.062;11.722;2022-11-15T07:47:56;25.58;;;18.27;;
47669;SDS011;33408;52.062;11.722;2022-11-15T07:50:23;23.17;;;16.45;;
47669;SDS011;33408;52.062;11.722;2022-11-15T07:52:53;25.00;;;16.95;;
47669;SDS011;33408;52.062;11.722;2022-11-15T07:55:20;23.65;;;15.65;;
47669;SDS011;33408;52.062;11.722;2022-11-15T07:57:47;23.23;;;17.55;;
47669;SDS011;33408;52.062;11.722;2022-11-15T08:00:14;24.70;;;17.23;;
47669;SDS011;33408;52.062;11.722;2022-11-15T08:02:41;22.98;;;17.13;;
47669;SDS011;33408;52.062;11.722;2022-11-15T08:05:09;21.05;;;15.85;;
47669;SDS011;33408;52.062;11.722;2022-11-15T08:07:36;23.15;;;16.60;;
47669;SDS011;33408;52.062;11.722;2022-11-15T08:10:03;22.25;;;16.63;;
47669;SDS011;33408;52.062;11.722;2022-11-15T08:12:31;22.75;;;16.05;;
47669;SDS011;33408;52.062;11.722;2022-11-15T08:14:58;25.35;;;17.42;;
47669;SDS011;33408;52.062;11.722;2022-11-15T08:17:24;22.90;;;17.88;;
47669;SDS011;33408;52.062;11.722;2022-11-15T08:19:51;21.85;;;16.90;;
47669;SDS011;33408;52.062;11.722;2022-11-15T08:22:20;21.20;;;16.17;;
47669;SDS011;33408;52.062;11.722;2022-11-15T08:24:46;20.75;;;15.45;;
47669;SDS011;33408;52.062;11.722;2022-11-15T08:27:13;23.08;;;15.52;;
47669;SDS011;33408;52.062;11.722;2022-11-15T08:29:41;22.15;;;15.90;;
47669;SDS011;33408;52.062;11.722;2022-11-15T08:32:09;24.30;;;18.30;;
47669;SDS011;33408;52.062;11.722;2022-11-15T08:34:36;25.08;;;17.63;;
47669;SDS011;33408;52.062;11.722;2022-11-15T08:37:02;22.08;;;16.08;;
47669;SDS011;33408;52.062;11.722;2022-11-15T08:39:31;22.10;;;17.33;;
47669;SDS011;33408;52.062;11.722;2022-11-15T08:41:58;23.85;;;16.77;;
47669;SDS011;33408;52.062;11.722;2022-11-15T08:44:25;23.60;;;17.15;;
47669;SDS011;33408;52.062;11.722;2022-11-15T08:46:51;24.27;;;16.75;;
47669;SDS011;33408;52.062;11.722;2022-11-15T08:49:18;20.60;;;15.18;;
47669;SDS011;33408;52.062;11.722;2022-11-15T08:51:45;21.60;;;15.57;;
47669;SDS011;33408;52.062;11.722;2022-11-15T08:54:11;22.48;;;15.70;;
47669;SDS011;33408;52.062;11.722;2022-11-15T08:56:39;21.83;;;14.93;;
47669;SDS011;33408;52.062;11.722;2022-11-15T08:59:06;23.67;;;15.73;;
47669;SDS011;33408;52.062;11.722;2022-11-15T09:01:33;22.02;;;14.65;;
47669;SDS011;33408;52.062;11.722;2022-11-15T09:04:00;21.45;;;15.35;;
47669;SDS011;33408;52.062;11.722;2022-11-15T09:06:26;22.23;;;14.70;;
47669;SDS011;33408;52.062;11.722;2022-11-15T09:08:53;21.23;;;14.85;;
47669;SDS011;33408;52.062;11.722;2022-11-15T09:11:19;19.75;;;14.55;;
47669;SDS011;33408;52.062;11.722;2022-11-15T09:13:48;21.13;;;15.15;;
47669;SDS011;33408;52.062;11.722;2022-11-15T09:16:15;19.40;;;13.95;;
47669;SDS011;33408;52.062;11.722;2022-11-15T09:18:41;19.33;;;13.85;;
47669;SDS011;33408;52.062;11.722;2022-11-15T09:21:08;19.70;;;13.95;;
47669;SDS011;33408;52.062;11.722;2022-11-15T09:23:36;22.17;;;15.25;;
47669;SDS011;33408;52.062;11.722;2022-11-15T09:26:03;21.33;;;15.30;;
47669;SDS011;33408;52.062;11.722;2022-11-15T09:28:31;23.27;;;14.90;;
47669;SDS011;33408;52.062;11.722;2022-11-15T09:31:00;19.45;;;13.95;;
47669;SDS011;33408;52.062;11.722;2022-11-15T09:33:29;19.85;;;13.75;;
47669;SDS011;33408;52.062;11.722;2022-11-15T09:36:00;19.02;;;14.00;;
47669;SDS011;33408;52.062;11.722;2022-11-15T09:38:27;16.88;;;12.90;;
47669;SDS011;33408;52.062;11.722;2022-11-15T09:40:57;16.77;;;13.15;;
47669;SDS011;33408;52.062;11.722;2022-11-15T09:43:43;17.63;;;13.60;;
47669;SDS011;33408;52.062;11.722;2022-11-15T09:46:22;16.80;;;13.20;;
47669;SDS011;33408;52.062;11.722;2022-11-15T09:48:59;18.80;;;12.70;;
47669;SDS011;33408;52.062;11.722;2022-11-15T09:51:29;18.10;;;12.57;;
47669;SDS011;33408;52.062;11.722;2022-11-15T09:54:04;17.50;;;12.60;;
47669;SDS011;33408;52.062;11.722;2022-11-15T09:56:36;16.23;;;12.32;;
47669;SDS011;33408;52.062;11.722;2022-11-15T09:59:19;16.75;;;11.32;;
47669;SDS011;33408;52.062;11.722;2022-11-15T10:01:56;19.83;;;11.75;;
47669;SDS011;33408;52.062;11.722;2022-11-15T10:04:34;15.65;;;10.75;;
47669;SDS011;33408;52.062;11.722;2022-11-15T10:07:04;19.63;;;11.82;;
47669;SDS011;33408;52.062;11.722;2022-11-15T10:09:42;18.13;;;11.85;;
47669;SDS011;33408;52.062;11.722;2022-11-15T10:12:13;17.23;;;11.25;;
47669;SDS011;33408;52.062;11.722;2022-11-15T10:14:43;14.90;;;11.65;;
47669;SDS011;33408;52.062;11.722;2022-11-15T10:20:22;15.30;;;9.98;;
47669;SDS011;33408;52.062;11.722;2022-11-15T10:22:52;15.68;;;11.05;;
47669;SDS011;33408;52.062;11.722;2022-11-15T10:25:22;14.38;;;10.27;;
47669;SDS011;33408;52.062;11.722;2022-11-15T10:27:53;17.30;;;10.32;;
47669;SDS011;33408;52.062;11.722;2022-11-15T10:30:23;14.13;;;10.25;;
47669;SDS011;33408;52.062;11.722;2022-11-15T10:32:57;13.63;;;9.77;;
47669;SDS011;33408;52.062;11.722;2022-11-15T10:35:25;14.23;;;9.68;;
47669;SDS011;33408;52.062;11.722;2022-11-15T10:37:56;15.07;;;9.50;;
47669;SDS011;33408;52.062;11.722;2022-11-15T10:40:31;18.95;;;9.82;;
47669;SDS011;33408;52.062;11.722;2022-11-15T10:43:04;14.45;;;10.32;;
47669;SDS011;33408;52.062;11.722;2022-11-15T10:45:32;14.38;;;9.73;;
47669;SDS011;33408;52.062;11.722;2022-11-15T10:50:53;12.90;;;9.50;;
47669;SDS011;33408;52.062;11.722;2022-11-15T10:53:22;12.85;;;9.15;;
47669;SDS011;33408;52.062;11.722;2022-11-15T10:55:53;15.57;;;9.77;;
47669;SDS011;33408;52.062;11.722;2022-11-15T10:58:34;11.05;;;8.18;;
47669;SDS011;33408;52.062;11.722;2022-11-15T11:01:14;17.10;;;10.25;;
47669;SDS011;33408;52.062;11.722;2022-11-15T11:03:43;12.25;;;8.77;;
47669;SDS011;33408;52.062;11.722;2022-11-15T11:06:13;14.18;;;8.38;;
47669;SDS011;33408;52.062;11.722;2022-11-15T11:08:52;13.57;;;8.68;;
47669;SDS011;33408;52.062;11.722;2022-11-15T11:11:20;13.45;;;8.30;;
47669;SDS011;33408;52.062;11.722;2022-11-15T11:13:47;13.05;;;8.85;;
47669;SDS011;33408;52.062;11.722;2022-11-15T11:16:29;12.63;;;8.20;;
47669;SDS011;33408;52.062;11.722;2022-11-15T11:19:16;11.82;;;7.35;;
47669;SDS011;33408;52.062;11.722;2022-11-15T11:21:55;12.20;;;8.07;;
47669;SDS011;33408;52.062;11.722;2022-11-15T11:24:32;13.50;;;7.75;;
47669;SDS011;33408;52.062;11.722;2022-11-15T11:29:55;12.20;;;7.78;;
47669;SDS011;33408;52.062;11.722;2022-11-15T11:32:33;12.38;;;7.97;;
47669;SDS011;33408;52.062;11.722;2022-11-15T11:35:09;10.60;;;7.55;;
47669;SDS011;33408;52.062;11.722;2022-11-15T11:37:42;11.60;;;7.32;;
47669;SDS011;33408;52.062;11.722;2022-11-15T11:40:16;11.45;;;7.07;;
47669;SDS011;33408;52.062;11.722;2022-11-15T11:42:56;10.65;;;6.82;;
47669;SDS011;33408;52.062;11.722;2022-11-15T11:45:39;12.90;;;6.75;;
47669;SDS011;33408;52.062;11.722;2022-11-15T11:48:25;11.52;;;6.80;;
47669;SDS011;33408;52.062;11.722;2022-11-15T11:51:04;9.85;;;6.93;;
47669;SDS011;33408;52.062;11.722;2022-11-15T11:53:39;11.18;;;6.55;;
47669;SDS011;33408;52.062;11.722;2022-11-15T11:56:14;12.45;;;7.38;;
47669;SDS011;33408;52.062;11.722;2022-11-15T11:58:48;10.43;;;5.72;;
47669;SDS011;33408;52.062;11.722;2022-11-15T12:01:20;13.18;;;6.20;;
47669;SDS011;33408;52.062;11.722;2022-11-15T12:03:53;11.40;;;6.38;;
47669;SDS011;33408;52.062;11.722;2022-11-15T12:06:26;11.25;;;6.95;;
47669;SDS011;33408;52.062;11.722;2022-11-15T12:09:00;12.50;;;6.43;;
47669;SDS011;33408;52.062;11.722;2022-11-15T12:11:34;11.13;;;6.88;;
47669;SDS011;33408;52.062;11.722;2022-11-15T12:14:05;11.20;;;7.25;;
47669;SDS011;33408;52.062;11.722;2022-11-15T12:16:38;12.00;;;6.93;;
47669;SDS011;33408;52.062;11.722;2022-11-15T12:19:08;15.38;;;7.70;;
47669;SDS011;33408;52.062;11.722;2022-11-15T12:21:35;11.07;;;7.18;;
47669;SDS011;33408;52.062;11.722;2022-11-15T12:26:39;10.70;;;6.13;;
47669;SDS011;33408;52.062;11.722;2022-11-15T12:29:11;10.98;;;6.75;;
47669;SDS011;33408;52.062;11.722;2022-11-15T12:31:43;14.55;;;5.95;;
47669;SDS011;33408;52.062;11.722;2022-11-15T12:34:15;10.98;;;6.55;;
47669;SDS011;33408;52.062;11.722;2022-11-15T12:37:01;11.68;;;6.75;;
47669;SDS011;33408;52.062;11.722;2022-11-15T12:42:56;11.48;;;6.90;;
47669;SDS011;33408;52.062;11.722;2022-11-15T12:45:26;9.90;;;6.50;;
47669;SDS011;33408;52.062;11.722;2022-11-15T12:47:55;11.27;;;6.72;;
47669;SDS011;33408;52.062;11.722;2022-11-15T12:50:55;12.50;;;7.30;;
47669;SDS011;33408;52.062;11.722;2022-11-15T12:53:26;9.90;;;6.28;;
47669;SDS011;33408;52.062;11.722;2022-11-15T12:58:47;9.55;;;6.28;;
47669;SDS011;33408;52.062;11.722;2022-11-15T13:04:21;10.45;;;6.13;;
47669;SDS011;33408;52.062;11.722;2022-11-15T13:06:51;12.63;;;6.63;;
47669;SDS011;33408;52.062;11.722;2022-11-15T13:12:49;10.35;;;6.57;;
47669;SDS011;33408;52.062;11.722;2022-11-15T13:15:35;11.73;;;6.35;;
47669;SDS011;33408;52.062;11.722;2022-11-15T13:21:21;9.90;;;6.65;;
47669;SDS011;33408;52.062;11.722;2022-11-15T13:24:10;9.43;;;6.38;;
47669;SDS011;33408;52.062;11.722;2022-11-15T13:26:40;11.98;;;6.13;;
47669;SDS011;33408;52.062;11.722;2022-11-15T13:29:14;8.80;;;6.00;;
47669;SDS011;33408;52.062;11.722;2022-11-15T13:31:44;9.93;;;6.85;;
47669;SDS011;33408;52.062;11.722;2022-11-15T13:36:58;11.88;;;6.93;;
47669;SDS011;33408;52.062;11.722;2022-11-15T13:39:26;9.60;;;6.15;;
47669;SDS011;33408;52.062;11.722;2022-11-15T13:41:54;10.15;;;6.43;;
47669;SDS011;33408;52.062;11.722;2022-11-15T13:44:22;10.65;;;7.15;;
47669;SDS011;33408;52.062;11.722;2022-11-15T13:47:01;10.65;;;6.38;;
47669;SDS011;33408;52.062;11.722;2022-11-15T13:49:30;10.25;;;5.95;;
47669;SDS011;33408;52.062;11.722;2022-11-15T13:51:57;10.02;;;5.53;;
47669;SDS011;33408;52.062;11.722;2022-11-15T13:54:26;10.02;;;5.72;;
47669;SDS011;33408;52.062;11.722;2022-11-15T13:56:57;11.07;;;6.10;;
47669;SDS011;33408;52.062;11.722;2022-11-15T13:59:28;11.02;;;6.38;;
47669;SDS011;33408;52.062;11.722;2022-11-15T14:01:58;11.20;;;5.43;;
47669;SDS011;33408;52.062;11.722;2022-11-15T14:04:29;8.82;;;4.85;;
47669;SDS011;33408;52.062;11.722;2022-11-15T14:06:58;8.95;;;5.63;;
47669;SDS011;33408;52.062;11.722;2022-11-15T14:09:31;11.25;;;5.47;;
47669;SDS011;33408;52.062;11.722;2022-11-15T14:12:00;10.50;;;5.57;;
47669;SDS011;33408;52.062;11.722;2022-11-15T14:14:28;9.55;;;5.80;;
47669;SDS011;33408;52.062;11.722;2022-11-15T14:16:56;8.57;;;5.53;;
47669;SDS011;33408;52.062;11.722;2022-11-15T14:19:35;11.25;;;5.82;;
47669;SDS011;33408;52.062;11.722;2022-11-15T14:22:07;8.80;;;6.03;;
47669;SDS011;33408;52.062;11.722;2022-11-15T14:24:41;9.20;;;5.43;;
47669;SDS011;33408;52.062;11.722;2022-11-15T14:27:16;13.07;;;5.70;;
47669;SDS011;33408;52.062;11.722;2022-11-15T14:29:47;9.60;;;5.53;;
47669;SDS011;33408;52.062;11.722;2022-11-15T14:32:15;9.05;;;5.70;;
47669;SDS011;33408;52.062;11.722;2022-11-15T14:34:44;9.38;;;5.80;;
47669;SDS011;33408;52.062;11.722;2022-11-15T14:37:16;8.20;;;5.45;;
47669;SDS011;33408;52.062;11.722;2022-11-15T14:39:46;11.50;;;5.10;;
47669;SDS011;33408;52.062;11.722;2022-11-15T14:42:12;8.38;;;5.25;;
47669;SDS011;33408;52.062;11.722;2022-11-15T14:44:39;10.80;;;5.80;;
47669;SDS011;33408;52.062;11.722;2022-11-15T14:47:05;9.45;;;5.90;;
47669;SDS011;33408;52.062;11.722;2022-11-15T14:49:32;11.52;;;5.18;;
47669;SDS011;33408;52.062;11.722;2022-11-15T14:52:00;10.40;;;5.07;;
47669;SDS011;33408;52.062;11.722;2022-11-15T14:54:26;8.95;;;4.90;;
47669;SDS011;33408;52.062;11.722;2022-11-15T14:56:53;10.38;;;5.18;;
47669;SDS011;33408;52.062;11.722;2022-11-15T14:59:22;12.65;;;6.03;;
47669;SDS011;33408;52.062;11.722;2022-11-15T15:01:49;8.02;;;5.25;;